Flight Track Log - Related Links

Times and Time Zones

All times are in EDT time to prevent confusion due to time zone crossing. See the SWA750 flight status page for this flight to view local times or setup timezone preferences in your user account.

Time Position Orientation Groundspeed Altitude Reporting Facility
EDT Latitude Longitude Course Direction KTS MPH feet Rate Location/Type
Tue 21:59:09 39.8167 -104.8500 250° West 258 297 10,100  Level Denver TRACON
Tue 22:00:09 39.7833 -104.9500 247° West 301 346 12,400 3,400 Climbing Denver TRACON
Tue 22:01:09 39.7667 -105.0333 255° West 264 304 16,900 3,485 Climbing Denver TRACON
Tue 22:02:25 39.7203 -105.1544 244° Southwest 286 329 20,300 2,672 Climbing Denver Center
Tue 22:03:00 39.6426 -105.3143 244° Southwest  Level FlightAware Approximate
Tue 22:03:26 39.6847 -105.2522 245° Southwest 299 344 23,000  Level Denver Center
Tue 22:04:00 39.5996 -105.4432 250° West  Level FlightAware Approximate
Tue 22:04:28 39.6481 -105.3539 245° Southwest 311 358 25,400  Level Denver Center
Tue 22:05:30 39.6092 -105.4619 245° Southwest 326 375 28,000 1,902 Climbing Denver Center
Tue 22:06:31 39.5678 -105.5736 244° Southwest 341 392 29,300 1,415 Climbing Denver Center
Tue 22:07:33 39.5292 -105.6964 248° West 365 420 30,900 1,756 Climbing Denver Center
Tue 22:08:34 39.4878 -105.8456 250° West 372 428 32,900 1,902 Climbing Denver Center
Tue 22:09:36 39.4544 -105.9758 252° West 376 433 34,800 1,902 Climbing Denver Center
Tue 22:10:37 39.4178 -106.1039 250° West 377 434 36,800 1,043 Climbing Denver Center
Tue 22:12:40 39.3497 -106.3492 250° West 368 423 38,000 389 Climbing Denver Center
Tue 22:13:42 39.3075 -106.4947 249° West 385 443 38,000  Level Denver Center
Tue 22:14:43 39.2711 -106.6192 249° West 385 443 38,000  Level Denver Center
Tue 22:15:45 39.2347 -106.7342 248° West 367 422 38,000  Level Denver Center
Tue 22:17:00 39.1401 -106.8595 230° Southwest  Level FlightAware Approximate
Tue 22:18:49 39.0164 -107.0711 229° Southwest 384 442 38,000  Level Denver Center
Tue 22:19:51 38.9542 -107.1689 231° Southwest 374 430 38,000  Level Denver Center
Tue 22:20:52 38.8906 -107.2672 230° Southwest 372 428 38,000  Level Denver Center
Tue 22:21:53 38.8164 -107.3803 230° Southwest 371 427 38,000  Level Denver Center
Tue 22:22:55 38.7519 -107.4803 230° Southwest 376 433 38,000  Level Denver Center
Tue 22:23:56 38.6864 -107.5792 230° Southwest 379 436 38,000  Level Denver Center
Tue 22:24:00 38.6543 -107.6072 229° Southwest  Level FlightAware Approximate
Tue 22:24:57 38.6103 -107.6950 230° Southwest 379 436 38,000  Level Denver Center
Tue 22:25:59 38.5450 -107.7947 230° Southwest 381 438 38,000  Level Denver Center
Tue 22:27:00 38.4683 -107.9106 230° Southwest 381 438 38,000  Level Denver Center
Tue 22:28:02 38.4031 -108.0094 230° Southwest 380 437 38,000  Level Denver Center
Tue 22:29:03 38.3369 -108.1081 229° Southwest 382 440 38,000  Level Denver Center
Tue 22:30:04 38.2578 -108.2267 230° Southwest 389 448 38,000  Level Denver Center
Tue 22:31:06 38.1897 -108.3297 230° Southwest 396 456 38,000  Level Denver Center
Tue 22:32:07 38.1111 -108.4472 230° Southwest 392 451 38,000  Level Denver Center
Tue 22:33:08 38.0478 -108.5406 229° Southwest 389 448 38,000  Level Denver Center
Tue 22:34:10 37.9517 -108.6356 218° Southwest 396 456 38,000  Level Denver Center
Tue 22:35:11 37.8672 -108.7175 217° Southwest 397 457 38,000  Level Denver Center
Tue 22:36:12 37.7847 -108.8022 219° Southwest 399 459 38,000  Level Denver Center
Tue 22:37:13 37.6872 -108.8986 218° Southwest 396 456 38,000  Level Denver Center
Tue 22:38:15 37.6056 -108.9819 219° Southwest 396 456 38,000  Level Denver Center
Tue 22:39:16 37.5097 -109.0811 219° Southwest 399 459 38,000  Level Denver Center
Tue 22:40:17 37.4306 -109.1664 221° Southwest 393 452 38,000  Level Denver Center
Tue 22:41:18 37.3858 -109.2819 244° Southwest 384 442 38,000  Level Denver Center
Tue 22:42:19 37.3353 -109.4153 245° Southwest 381 438 38,000  Level Denver Center
Tue 22:43:20 37.2897 -109.5300 244° Southwest 383 441 38,000  Level Denver Center
Tue 22:44:21 37.2369 -109.6658 244° Southwest 387 445 38,000  Level Denver Center
Tue 22:45:23 37.1917 -109.7822 244° Southwest 387 445 38,000  Level Denver Center
Tue 22:46:24 37.1464 -109.8986 244° Southwest 388 447 38,000  Level Denver Center
Tue 22:47:25 37.0911 -110.0353 243° Southwest 394 453 38,000  Level Denver Center
Tue 22:48:26 37.0461 -110.1519 244° Southwest 390 449 38,000  Level Denver Center
Tue 22:49:27 36.9939 -110.2803 243° Southwest 389 448 38,000  Level Denver Center
Tue 22:50:28 36.9453 -110.4017 243° Southwest 391 450 38,000  Level Denver Center
Tue 22:51:29 36.8964 -110.5233 243° Southwest 390 449 38,000  Level Denver Center
Tue 22:53:31 36.7989 -110.7672 244° Southwest 394 453 38,000  Level Denver Center
Tue 22:54:33 36.7497 -110.8875 243° Southwest 390 449 38,000  Level Denver Center
Tue 22:55:34 36.7000 -111.0106 243° Southwest 394 453 38,000  Level Denver Center
Tue 22:56:35 36.6503 -111.1333 243° Southwest 397 457 38,000  Level Denver Center
Tue 22:57:36 36.5997 -111.2544 243° Southwest 395 455 38,000  Level Denver Center
Tue 22:58:36 36.5600 -111.3517 243° Southwest 394 453 38,000  Level Denver Center
Tue 22:59:50 36.4883 -111.5217 242° Southwest 396 456 38,000  Level Denver Center
Tue 23:00:51 36.4292 -111.6672 243° Southwest 394 453 38,000  Level Denver Center
Tue 23:01:52 36.3775 -111.7900 242° Southwest 399 459 38,000  Level Denver Center
Tue 23:02:53 36.3258 -111.9133 243° Southwest 401 461 38,000  Level Denver Center
Tue 23:03:17 36.3061 -111.9600 242° Southwest 394 453 38,000  Level Los Angeles Center
Tue 23:04:19 36.2561 -112.0806 243° Southwest 393 452 38,000  Level Los Angeles Center
Tue 23:05:20 36.2036 -112.2036 242° Southwest 398 458 38,000  Level Los Angeles Center
Tue 23:06:22 36.1506 -112.3289 242° Southwest 406 467 38,000  Level Los Angeles Center
Tue 23:07:23 36.0967 -112.4519 242° Southwest 407 468 38,000  Level Los Angeles Center
Tue 23:08:25 36.0450 -112.5744 242° Southwest 404 465 38,000  Level Los Angeles Center
Tue 23:09:27 35.9831 -112.7194 242° Southwest 399 459 38,000  Level Los Angeles Center
Tue 23:10:28 35.9347 -112.8322 242° Southwest 398 458 38,000  Level Los Angeles Center
Tue 23:11:30 35.8836 -112.9511 242° Southwest 397 457 38,000  Level Los Angeles Center
Tue 23:12:32 35.8319 -113.0692 242° Southwest 396 456 38,000  Level Los Angeles Center
Tue 23:13:33 35.7800 -113.1883 242° Southwest 399 459 38,000  Level Los Angeles Center
Tue 23:14:48 35.7075 -113.3553 242° Southwest 399 459 38,000  Level Los Angeles Center
Tue 23:15:49 35.6556 -113.4753 242° Southwest 401 461 38,000  Level Los Angeles Center
Tue 23:16:51 35.6028 -113.5972 242° Southwest 406 467 38,000  Level Los Angeles Center
Tue 23:17:53 35.5536 -113.7217 244° Southwest 408 470 38,000  Level Los Angeles Center
Tue 23:18:54 35.5033 -113.8444 243° Southwest 407 468 38,000  Level Los Angeles Center
Tue 23:19:56 35.4414 -113.9961 243° Southwest 407 468 38,000  Level Los Angeles Center
Tue 23:20:58 35.3897 -114.1222 243° Southwest 412 474 38,000  Level Los Angeles Center
Tue 23:21:59 35.3383 -114.2464 243° Southwest 410 472 38,000  Level Los Angeles Center
Tue 23:23:00 35.2872 -114.3607 241° Southwest  Level FlightAware Approximate
Tue 23:25:05 35.1833 -114.6203 244° Southwest 410 472 38,000  Level Los Angeles Center
Tue 23:26:06 35.1311 -114.7464 243° Southwest 414 476 38,000  Level Los Angeles Center
Tue 23:27:08 35.0789 -114.8714 243° Southwest 413 475 38,000  Level Los Angeles Center
Tue 23:28:10 35.0250 -114.9972 242° Southwest 416 479 38,000  Level Los Angeles Center
Tue 23:29:11 34.9617 -115.1500 243° Southwest 419 482 38,000  Level Los Angeles Center
Tue 23:30:00 34.9431 -115.1514 244° Southwest  Level FlightAware Approximate
Tue 23:30:13 34.9181 -115.2506 242° Southwest 418 481 38,000  Level Los Angeles Center
Tue 23:31:15 34.8544 -115.3986 242° Southwest 414 476 38,000  Level Los Angeles Center
Tue 23:32:17 34.8006 -115.5253 243° Southwest 418 481 38,000  Level Los Angeles Center
Tue 23:33:18 34.7450 -115.6592 243° Southwest 423 487 38,000  Level Los Angeles Center
Tue 23:34:20 34.6900 -115.7858 242° Southwest 424 488 38,000  Level Los Angeles Center
Tue 23:35:22 34.6347 -115.9114 242° Southwest 423 487 38,000  Level Los Angeles Center
Tue 23:36:24 34.5811 -116.0381 243° Southwest 423 487 38,000  Level Los Angeles Center
Tue 23:37:25 34.5253 -116.1639 242° Southwest 424 488 38,000 -683 Level Los Angeles Center
Tue 23:38:27 34.4706 -116.2914 243° Southwest 424 488 36,600 -2,613 Descending Los Angeles Center
Tue 23:39:29 34.4017 -116.4461 242° Southwest 433 498 32,600 -3,242 Descending Los Angeles Center
Tue 23:40:31 34.3447 -116.5764 242° Southwest 437 503 29,900 -2,634 Descending Los Angeles Center
Tue 23:41:32 34.2892 -116.7025 242° Southwest 427 491 27,200 -2,537 Descending Los Angeles Center
Tue 23:42:34 34.2344 -116.8256 242° Southwest 417 480 24,700 -2,419 Descending Los Angeles Center
Tue 23:43:36 34.1811 -116.9433 241° Southwest 403 464 22,200 -2,323 Descending Los Angeles Center
Tue 23:44:38 34.1300 -117.0583 242° Southwest 391 450 19,900 -2,103 Descending Los Angeles Center
Tue 23:45:13 34.1000 -117.1333 244° Southwest 369 425 18,800 -1,453 Descending Southern California TRACON
Tue 23:46:13 34.0333 -117.2333 231° Southwest 338 389 17,600 -1,400 Descending Southern California TRACON
Tue 23:47:13 33.9667 -117.3000 220° Southwest 324 373 16,000 -1,700 Descending Southern California TRACON
Tue 23:48:13 33.9500 -117.3833 256° West 310 357 14,200 -1,650 Descending Southern California TRACON
Tue 23:49:13 33.9833 -117.4667 296° West 287 330 12,700 -1,204 Descending Southern California TRACON
Tue 23:51:00 34.0072 -117.6210 253° West  Level FlightAware Approximate
Tue 23:53:52 33.9892 -117.8639 259° West 260 299 7,400  Level Los Angeles Center
Tue 23:54:54 33.9808 -117.9528 264° West 265 305 6,300 -1,034 Descending Los Angeles Center
Tue 23:55:19 33.9667 -118.0000 250° West 262 302 5,900 -988 Descending Southern California TRACON
Tue 23:56:19 33.9667 -118.0833 270° West 252 290 4,900 -1,102 Descending Southern California TRACON
Tue 23:56:57 33.9625 -118.1392 265° West 259 298 4,100 -1,135 Descending Los Angeles Center
Tue 23:58:00 33.9333 -118.4000 259° West  Level FlightAware Approximate
Tue 23:58:10 33.9550 -118.2139 263° West 237 273 2,800  Level Los Angeles Center
Tue 23:59:00 33.9425 -118.4081 259° West  Level Estimated
Tue 23:59:12 33.9475 -118.2869 263° West 198 228 1,600  Level Los Angeles Center
Wed 00:00:14 33.9425 -118.3369 263° West 173 199 800 -732 Descending Los Angeles Center
Wed 00:01:15 33.9383 -118.3831 264° West 153 176 100 -689 Descending Los Angeles Center
Wed 00:03:00 33.9333 -118.4000 259° West  Level FlightAware Approximate

Login

Don't have an account? Register now (free) for customized features, flight alerts, and more!